createdAt,value
2022-12-27T00:00:11.293Z,84.45
2022-12-27T00:02:39.964Z,83.97
2022-12-27T00:05:10.842Z,84.26
2022-12-27T00:07:39.467Z,84.00
2022-12-27T00:10:10.986Z,84.46
2022-12-27T00:12:39.617Z,84.85
2022-12-27T00:15:09.028Z,84.40
2022-12-27T00:17:37.543Z,84.80
2022-12-27T00:20:11.294Z,84.80
2022-12-27T00:22:40.879Z,84.55
2022-12-27T00:25:11.786Z,84.56
2022-12-27T00:27:40.285Z,85.24
2022-12-27T00:30:09.744Z,85.11
2022-12-27T00:32:38.281Z,85.42
2022-12-27T00:35:07.651Z,85.49
2022-12-27T00:37:36.088Z,86.13
2022-12-27T00:40:05.018Z,86.04
2022-12-27T00:42:34.892Z,85.36
2022-12-27T00:45:03.411Z,85.78
2022-12-27T00:47:32.004Z,85.89
2022-12-27T00:50:00.396Z,86.31
2022-12-27T00:52:28.861Z,85.57
2022-12-27T00:54:57.315Z,85.74
2022-12-27T00:57:25.979Z,85.80
2022-12-27T00:59:56.027Z,86.10
2022-12-27T01:02:26.013Z,85.90
2022-12-27T01:04:55.034Z,86.41
2022-12-27T01:07:23.496Z,85.92
2022-12-27T01:09:52.233Z,86.22
2022-12-27T01:12:20.838Z,86.74
2022-12-27T01:14:49.359Z,86.56
2022-12-27T01:17:19.171Z,86.98
2022-12-27T01:19:47.599Z,86.86
2022-12-27T01:22:16.062Z,86.80
2022-12-27T01:24:45.203Z,86.82
2022-12-27T01:27:13.688Z,86.86
2022-12-27T01:29:42.291Z,86.87
2022-12-27T01:32:10.803Z,87.38
2022-12-27T01:34:40.647Z,87.07
2022-12-27T01:37:09.195Z,87.35
2022-12-27T01:39:37.800Z,87.37
2022-12-27T01:42:32.217Z,87.30
2022-12-27T01:45:00.924Z,87.22
2022-12-27T01:47:38.418Z,87.07
2022-12-27T01:50:15.441Z,87.57
2022-12-27T01:52:53.302Z,88.21
2022-12-27T01:55:29.435Z,87.71
2022-12-27T01:58:03.455Z,87.67
2022-12-27T02:00:32.216Z,88.21
2022-12-27T02:03:03.987Z,88.78
2022-12-27T02:05:35.140Z,88.92
2022-12-27T02:08:15.591Z,88.60
2022-12-27T02:10:44.730Z,89.06
2022-12-27T02:13:13.616Z,89.28
2022-12-27T02:15:42.186Z,89.03
2022-12-27T02:18:10.677Z,89.17
2022-12-27T02:20:59.791Z,89.11
2022-12-27T02:24:03.997Z,89.40
2022-12-27T02:26:45.896Z,89.68
2022-12-27T02:29:42.134Z,89.79
2022-12-27T02:32:15.948Z,89.83
2022-12-27T02:34:53.510Z,90.14
2022-12-27T02:37:24.543Z,90.27
2022-12-27T02:39:54.896Z,90.93
2022-12-27T02:42:41.354Z,90.66
2022-12-27T02:45:38.173Z,90.49
2022-12-27T02:48:31.732Z,90.28
2022-12-27T02:51:31.865Z,90.33
2022-12-27T02:54:12.949Z,91.02
2022-12-27T02:57:20.036Z,90.96
2022-12-27T03:00:22.643Z,91.08
2022-12-27T03:03:24.793Z,90.95
2022-12-27T03:06:41.490Z,90.82
2022-12-27T03:09:46.385Z,91.10
2022-12-27T03:12:41.118Z,90.91
2022-12-27T03:15:44.008Z,91.11
2022-12-27T03:18:18.260Z,91.23
2022-12-27T03:21:07.766Z,91.46
2022-12-27T03:23:57.357Z,91.98
2022-12-27T03:26:29.314Z,92.21
2022-12-27T03:29:16.784Z,92.15
2022-12-27T03:32:08.142Z,92.38
2022-12-27T03:34:41.569Z,91.90
2022-12-27T03:37:31.499Z,92.37
2022-12-27T03:40:08.711Z,92.17
2022-12-27T03:42:59.312Z,92.98
2022-12-27T03:45:48.017Z,92.77
2022-12-27T03:48:21.672Z,93.10
2022-12-27T03:50:55.798Z,93.35
2022-12-27T03:53:32.860Z,93.30
2022-12-27T03:56:01.961Z,93.22
2022-12-27T03:58:30.480Z,93.47
2022-12-27T04:00:59.008Z,93.34
2022-12-27T04:03:27.572Z,93.36
2022-12-27T04:05:57.422Z,93.04
2022-12-27T04:08:44.495Z,93.01
2022-12-27T04:11:31.078Z,92.83
2022-12-27T04:14:17.421Z,93.04
2022-12-27T04:17:03.529Z,92.82
2022-12-27T04:19:49.548Z,93.03
2022-12-27T04:22:37.042Z,93.28
2022-12-27T04:25:24.027Z,93.34
2022-12-27T04:28:10.096Z,93.25
2022-12-27T04:30:56.488Z,93.27
2022-12-27T04:33:42.782Z,92.96
2022-12-27T04:36:11.430Z,92.56
2022-12-27T04:38:41.250Z,92.71
2022-12-27T04:41:27.089Z,92.17
2022-12-27T04:44:13.294Z,91.90
2022-12-27T04:46:59.594Z,91.79
2022-12-27T04:49:46.136Z,92.23
2022-12-27T04:52:31.109Z,92.71
2022-12-27T04:55:04.043Z,92.68
2022-12-27T04:57:32.728Z,92.21
2022-12-27T05:00:19.145Z,92.77
2022-12-27T05:02:48.092Z,92.66
2022-12-27T05:05:17.118Z,93.07
2022-12-27T05:08:03.428Z,92.86
2022-12-27T05:10:51.007Z,92.80
2022-12-27T05:13:37.190Z,92.83
2022-12-27T05:16:06.405Z,93.34
2022-12-27T05:18:34.920Z,92.01
2022-12-27T05:21:03.925Z,91.46
2022-12-27T05:23:51.490Z,90.67
2022-12-27T05:26:23.847Z,90.31
2022-12-27T05:28:54.135Z,89.98
2022-12-27T05:31:24.735Z,89.40
2022-12-27T05:33:54.225Z,89.29
2022-12-27T05:36:25.147Z,89.56
2022-12-27T05:38:53.921Z,89.17
2022-12-27T05:41:23.873Z,89.17
2022-12-27T05:43:52.889Z,89.22
2022-12-27T05:46:23.122Z,89.47
2022-12-27T05:48:51.593Z,89.90
2022-12-27T05:51:22.244Z,89.77
2022-12-27T05:53:50.764Z,89.82
2022-12-27T05:56:21.083Z,90.14
2022-12-27T05:58:53.711Z,89.63
2022-12-27T06:01:22.772Z,89.68
2022-12-27T06:03:51.321Z,89.64
2022-12-27T06:06:19.920Z,89.70
2022-12-27T06:08:48.465Z,89.86
2022-12-27T06:11:18.766Z,90.17
2022-12-27T06:13:52.622Z,90.28
2022-12-27T06:16:23.390Z,90.21
2022-12-27T06:18:52.486Z,90.46
2022-12-27T06:21:22.576Z,90.12
2022-12-27T06:23:51.324Z,89.58
2022-12-27T06:26:22.123Z,89.36
2022-12-27T06:28:53.279Z,89.49
2022-12-27T06:31:22.409Z,89.29
2022-12-27T06:33:52.612Z,89.11
2022-12-27T06:36:24.600Z,88.94
2022-12-27T06:38:53.725Z,89.37
2022-12-27T06:41:22.183Z,89.10
2022-12-27T06:43:56.364Z,89.06
2022-12-27T06:46:25.545Z,89.20
2022-12-27T06:48:54.392Z,89.33
2022-12-27T06:51:23.049Z,89.59
2022-12-27T06:53:51.679Z,89.71
2022-12-27T06:56:23.133Z,90.28
2022-12-27T06:58:53.906Z,90.48
2022-12-27T07:01:25.228Z,90.70
2022-12-27T07:03:55.627Z,91.82
2022-12-27T07:06:30.825Z,92.35
2022-12-27T07:09:01.346Z,91.97
2022-12-27T07:11:30.268Z,92.73
2022-12-27T07:14:00.229Z,93.03
2022-12-27T07:16:29.955Z,92.78
2022-12-27T07:19:00.470Z,92.89
2022-12-27T07:21:30.187Z,93.02
2022-12-27T07:24:01.162Z,93.21
2022-12-27T07:26:31.280Z,93.43
2022-12-27T07:29:02.595Z,93.87
2022-12-27T07:31:33.661Z,93.15
2022-12-27T07:34:03.972Z,93.51
2022-12-27T07:36:35.305Z,93.21
2022-12-27T07:39:04.909Z,93.62
2022-12-27T07:41:33.592Z,93.88
2022-12-27T07:44:04.374Z,93.63
2022-12-27T07:46:33.107Z,94.11
2022-12-27T07:49:01.647Z,94.06
2022-12-27T07:51:31.313Z,94.37
2022-12-27T07:53:59.759Z,94.21
2022-12-27T07:56:30.207Z,93.98
2022-12-27T07:59:01.366Z,93.64
2022-12-27T08:02:01.740Z,93.72
2022-12-27T08:04:31.159Z,93.76
2022-12-27T08:07:03.755Z,92.94
2022-12-27T08:09:36.205Z,92.69
2022-12-27T08:12:05.708Z,92.00
2022-12-27T08:14:34.571Z,91.86
2022-12-27T08:17:08.405Z,92.09
2022-12-27T08:19:37.250Z,91.92
2022-12-27T08:22:06.428Z,91.85
2022-12-27T08:24:34.980Z,91.33
2022-12-27T08:27:05.573Z,91.20
2022-12-27T08:29:34.305Z,91.06
2022-12-27T08:32:02.937Z,90.77
2022-12-27T08:34:32.850Z,90.32
2022-12-27T08:37:01.372Z,90.03
2022-12-27T08:39:31.005Z,89.92
2022-12-27T08:41:59.574Z,89.21
2022-12-27T08:44:28.093Z,88.94
2022-12-27T08:46:56.747Z,88.71
2022-12-27T08:49:25.292Z,88.25
2022-12-27T08:51:55.728Z,88.26
2022-12-27T08:54:24.699Z,88.41
2022-12-27T08:56:53.492Z,88.27
2022-12-27T08:59:22.379Z,88.42
2022-12-27T09:01:51.089Z,88.42
2022-12-27T09:04:19.807Z,87.76
2022-12-27T09:06:48.407Z,85.99
2022-12-27T09:09:18.367Z,81.35
2022-12-27T09:11:46.908Z,77.61
2022-12-27T09:14:15.398Z,72.46
2022-12-27T09:16:44.012Z,66.00
2022-12-27T09:19:13.041Z,63.89
2022-12-27T09:21:44.030Z,58.79
2022-12-27T09:24:13.519Z,60.44
2022-12-27T09:26:43.372Z,64.98
2022-12-27T09:29:12.344Z,67.22
2022-12-27T09:31:41.059Z,68.93
2022-12-27T09:34:10.972Z,63.21
2022-12-27T09:36:41.030Z,61.85
2022-12-27T09:39:10.247Z,65.83
2022-12-27T09:44:47.240Z,70.74
2022-12-27T09:47:22.647Z,69.91
2022-12-27T09:49:55.107Z,66.56
2022-12-27T09:52:30.666Z,66.29
2022-12-27T09:55:08.040Z,68.74
2022-12-27T09:57:42.579Z,71.27
2022-12-27T10:00:16.498Z,72.46
2022-12-27T10:02:45.767Z,71.49
2022-12-27T10:05:21.947Z,71.01
2022-12-27T10:08:04.344Z,71.41
2022-12-27T10:10:42.411Z,70.06
2022-12-27T10:13:35.212Z,69.48
2022-12-27T10:16:18.927Z,69.35
2022-12-27T10:19:04.086Z,71.32
2022-12-27T10:21:39.124Z,73.13
2022-12-27T10:24:25.248Z,73.63
2022-12-27T10:26:56.831Z,71.40
2022-12-27T10:29:30.929Z,71.13
2022-12-27T10:31:59.538Z,71.88
2022-12-27T10:34:31.495Z,65.50
2022-12-27T10:37:00.151Z,54.96
2022-12-27T10:39:29.955Z,51.71
2022-12-27T10:42:03.642Z,53.73
2022-12-27T10:44:33.720Z,52.67
2022-12-27T10:47:02.991Z,50.09
2022-12-27T10:49:33.713Z,51.89
2022-12-27T10:52:18.547Z,50.55
2022-12-27T10:54:52.832Z,53.00
2022-12-27T10:57:27.801Z,57.10
2022-12-27T11:00:20.767Z,55.38
2022-12-27T11:02:54.216Z,57.20
2022-12-27T11:05:25.205Z,55.58
2022-12-27T11:07:54.084Z,57.47
2022-12-27T11:10:24.887Z,58.82
2022-12-27T11:12:57.171Z,60.98
2022-12-27T11:15:29.906Z,57.10
2022-12-27T11:18:00.253Z,58.75
2022-12-27T11:20:31.624Z,60.56
2022-12-27T11:23:04.124Z,61.90
2022-12-27T11:25:34.577Z,59.53
2022-12-27T11:28:06.152Z,58.51
2022-12-27T11:30:38.739Z,59.41
2022-12-27T11:33:24.408Z,63.30
2022-12-27T11:35:56.688Z,64.71
2022-12-27T11:38:29.197Z,63.89
2022-12-27T11:41:02.182Z,59.05
2022-12-27T11:43:36.687Z,59.43
2022-12-27T11:46:15.122Z,61.84
2022-12-27T11:48:46.620Z,61.68
2022-12-27T11:51:44.728Z,62.72
2022-12-27T11:54:29.971Z,63.68
2022-12-27T11:57:12.008Z,60.29
2022-12-27T11:59:53.280Z,61.28
2022-12-27T12:02:33.179Z,56.81
2022-12-27T12:05:46.514Z,51.85
2022-12-27T12:08:56.629Z,46.56
2022-12-27T12:11:38.849Z,41.13
2022-12-27T12:14:40.992Z,41.80
2022-12-27T12:17:32.449Z,40.99
2022-12-27T12:20:20.207Z,43.63
2022-12-27T12:23:03.288Z,47.32
2022-12-27T12:26:12.805Z,49.66
2022-12-27T12:29:12.069Z,53.63
2022-12-27T12:31:58.296Z,55.89
2022-12-27T12:34:44.603Z,57.18
2022-12-27T12:37:36.908Z,58.56
2022-12-27T12:40:33.572Z,58.98
2022-12-27T12:43:20.197Z,60.06
2022-12-27T12:46:07.614Z,63.45
2022-12-27T12:49:00.801Z,65.14
2022-12-27T12:51:46.761Z,66.22
2022-12-27T12:54:31.673Z,68.59
2022-12-27T12:57:12.023Z,69.99
2022-12-27T13:00:04.525Z,71.25
2022-12-27T13:02:59.815Z,71.83
2022-12-27T13:05:39.759Z,72.93
2022-12-27T13:08:17.295Z,74.42
2022-12-27T13:11:05.579Z,74.62
2022-12-27T13:13:49.151Z,75.07
2022-12-27T13:16:32.151Z,75.00
2022-12-27T13:19:15.865Z,74.91
2022-12-27T13:21:59.275Z,74.89
2022-12-27T13:24:37.656Z,74.19
2022-12-27T13:27:19.579Z,74.40
2022-12-27T13:30:01.651Z,73.60
2022-12-27T13:32:46.067Z,74.15
2022-12-27T13:35:30.028Z,74.28
2022-12-27T13:38:12.691Z,75.36
2022-12-27T13:41:04.162Z,74.91
2022-12-27T13:44:01.241Z,75.61
2022-12-27T13:46:50.503Z,75.81
2022-12-27T13:49:42.026Z,76.09
2022-12-27T13:52:25.158Z,76.69
2022-12-27T13:55:17.069Z,76.96
2022-12-27T13:58:05.670Z,76.97
2022-12-27T14:00:47.630Z,76.69
2022-12-27T14:03:55.246Z,77.16
2022-12-27T14:06:51.593Z,76.88
2022-12-27T14:09:40.248Z,76.91
2022-12-27T14:12:32.111Z,77.53
2022-12-27T14:15:06.546Z,77.13
2022-12-27T14:17:47.274Z,77.23
2022-12-27T14:20:29.197Z,77.51
2022-12-27T14:23:15.003Z,77.18
2022-12-27T14:26:15.354Z,77.23
2022-12-27T14:29:21.972Z,77.37
2022-12-27T14:32:14.157Z,77.68
2022-12-27T14:35:10.853Z,77.71
2022-12-27T14:38:22.579Z,78.65
2022-12-27T14:41:21.932Z,78.15
2022-12-27T14:44:20.313Z,78.09
2022-12-27T14:47:33.679Z,78.41
2022-12-27T14:50:59.017Z,79.13
2022-12-27T14:54:07.309Z,78.91
2022-12-27T14:56:47.712Z,79.48
2022-12-27T14:59:29.392Z,79.77
2022-12-27T15:02:13.842Z,79.99
2022-12-27T15:05:00.880Z,80.04
2022-12-27T15:07:42.687Z,80.38
2022-12-27T15:10:19.229Z,81.10
2022-12-27T15:12:57.994Z,80.26
2022-12-27T15:15:46.126Z,80.28
2022-12-27T15:18:33.345Z,81.00
2022-12-27T15:21:19.206Z,80.74
2022-12-27T15:23:53.857Z,80.78
2022-12-27T15:26:36.661Z,81.54
2022-12-27T15:29:21.379Z,81.72
2022-12-27T15:32:02.115Z,81.85
2022-12-27T15:34:42.405Z,82.00
2022-12-27T15:37:44.352Z,82.00
2022-12-27T15:40:25.902Z,81.88
2022-12-27T15:42:59.268Z,82.11
2022-12-27T15:45:43.527Z,82.53
2022-12-27T15:48:54.022Z,82.06
2022-12-27T15:51:29.899Z,81.96
2022-12-27T15:54:20.729Z,82.10
2022-12-27T15:57:01.871Z,81.68
2022-12-27T15:59:51.820Z,81.88
2022-12-27T16:02:32.583Z,81.20
2022-12-27T16:05:38.492Z,80.56
2022-12-27T16:08:26.238Z,80.62
2022-12-27T16:10:56.108Z,81.23
2022-12-27T16:13:41.356Z,80.62
2022-12-27T16:16:28.249Z,80.41
2022-12-27T16:19:24.858Z,79.37
2022-12-27T16:21:53.734Z,79.09
2022-12-27T16:24:26.754Z,79.78
2022-12-27T16:27:00.370Z,79.12
2022-12-27T16:29:32.781Z,78.26
2022-12-27T16:32:17.733Z,78.73
2022-12-27T16:34:51.411Z,78.23
2022-12-27T16:37:28.542Z,78.43
2022-12-27T16:40:24.406Z,77.71
2022-12-27T16:43:26.454Z,76.94
2022-12-27T16:46:01.885Z,76.84
2022-12-27T16:48:46.245Z,76.53
2022-12-27T16:51:24.751Z,77.06
2022-12-27T16:54:07.144Z,76.76
2022-12-27T16:56:37.372Z,77.61
2022-12-27T16:59:44.857Z,77.03
2022-12-27T17:02:32.300Z,76.96
2022-12-27T17:05:01.891Z,76.02
2022-12-27T17:07:51.060Z,75.65
2022-12-27T17:10:34.046Z,75.86
2022-12-27T17:13:10.852Z,75.67
2022-12-27T17:15:49.738Z,75.80
2022-12-27T17:18:27.469Z,75.21
2022-12-27T17:21:03.208Z,75.52
2022-12-27T17:23:39.411Z,74.56
2022-12-27T17:26:30.530Z,73.84
2022-12-27T17:29:12.483Z,74.41
2022-12-27T17:31:51.144Z,74.40
2022-12-27T17:34:31.276Z,75.16
2022-12-27T17:37:05.700Z,74.34
2022-12-27T17:39:56.016Z,73.62
2022-12-27T17:42:53.201Z,74.10
2022-12-27T17:45:31.216Z,74.15
2022-12-27T17:48:09.784Z,74.29
2022-12-27T17:50:41.458Z,74.25
2022-12-27T17:53:45.361Z,73.25
2022-12-27T17:56:37.325Z,72.92
2022-12-27T17:59:09.119Z,73.28
2022-12-27T18:01:44.331Z,73.45
2022-12-27T18:04:22.797Z,73.29
2022-12-27T18:06:56.137Z,73.45
2022-12-27T18:09:40.700Z,73.13
2022-12-27T18:12:19.753Z,72.87
2022-12-27T18:14:58.517Z,73.03
2022-12-27T18:17:31.439Z,73.08
2022-12-27T18:20:00.050Z,73.20
2022-12-27T18:22:28.767Z,74.33
2022-12-27T18:24:57.175Z,73.96
2022-12-27T18:27:27.131Z,74.35
2022-12-27T18:29:55.608Z,74.75
2022-12-27T18:32:26.203Z,75.33
2022-12-27T18:34:58.840Z,75.46
2022-12-27T18:37:28.777Z,75.63
2022-12-27T18:40:01.051Z,75.78
2022-12-27T18:42:34.420Z,75.99
2022-12-27T18:45:06.191Z,76.38
2022-12-27T18:47:39.919Z,75.86
2022-12-27T18:50:17.914Z,76.44
2022-12-27T18:52:51.318Z,76.59
2022-12-27T18:55:26.775Z,76.61
2022-12-27T18:58:06.433Z,76.49
2022-12-27T19:00:48.917Z,76.77
2022-12-27T19:03:20.106Z,77.03
2022-12-27T19:06:00.613Z,77.32
2022-12-27T19:08:34.916Z,76.97
2022-12-27T19:11:04.043Z,77.17
2022-12-27T19:13:41.972Z,77.38
2022-12-27T19:16:25.083Z,77.27
2022-12-27T19:18:56.314Z,77.01
2022-12-27T19:21:31.186Z,77.29
2022-12-27T19:24:31.590Z,77.61
2022-12-27T19:27:02.313Z,77.60
2022-12-27T19:29:39.385Z,77.83
2022-12-27T19:32:11.342Z,77.25
2022-12-27T19:34:44.591Z,77.72
2022-12-27T19:37:13.253Z,77.72
2022-12-27T19:39:42.481Z,77.93
2022-12-27T19:42:16.552Z,78.16
2022-12-27T19:44:47.028Z,78.01
2022-12-27T19:47:15.703Z,77.85
2022-12-27T19:49:45.040Z,77.97
2022-12-27T19:52:18.005Z,77.68
2022-12-27T19:54:47.143Z,77.77
2022-12-27T19:57:15.498Z,78.16
2022-12-27T19:59:43.955Z,78.21
2022-12-27T20:02:14.167Z,78.30
2022-12-27T20:04:42.612Z,78.05
2022-12-27T20:07:18.991Z,77.77
2022-12-27T20:09:47.565Z,77.79
2022-12-27T20:12:17.910Z,77.39
2022-12-27T20:14:47.211Z,77.73
2022-12-27T20:17:16.906Z,77.92
2022-12-27T20:19:45.307Z,77.65
2022-12-27T20:22:13.909Z,78.04
2022-12-27T20:24:42.340Z,77.90
2022-12-27T20:27:10.710Z,77.96
2022-12-27T20:29:39.141Z,77.73
2022-12-27T20:32:07.654Z,77.93
2022-12-27T20:34:37.672Z,78.39
2022-12-27T20:37:07.025Z,78.84
2022-12-27T20:39:35.592Z,78.45
2022-12-27T20:42:04.070Z,78.46
2022-12-27T20:44:32.455Z,78.57
2022-12-27T20:47:01.063Z,78.29
2022-12-27T20:49:29.421Z,78.24
2022-12-27T20:51:59.183Z,78.08
2022-12-27T20:54:27.690Z,77.95
2022-12-27T20:56:56.267Z,78.36
2022-12-27T20:59:24.944Z,78.33
2022-12-27T21:01:57.251Z,77.94
2022-12-27T21:04:27.672Z,77.91
2022-12-27T21:06:56.110Z,77.00
2022-12-27T21:09:26.013Z,76.92
2022-12-27T21:11:54.462Z,77.41
2022-12-27T21:14:23.191Z,77.39
2022-12-27T21:16:51.787Z,77.67
2022-12-27T21:19:20.333Z,77.71
2022-12-27T21:21:49.117Z,77.51
2022-12-27T21:24:17.461Z,77.26
2022-12-27T21:26:51.934Z,77.54
2022-12-27T21:29:26.838Z,77.58
2022-12-27T21:31:55.883Z,77.68
2022-12-27T21:34:24.316Z,77.22
2022-12-27T21:36:52.992Z,77.19
2022-12-27T21:39:21.937Z,77.16
2022-12-27T21:41:51.862Z,77.22
2022-12-27T21:44:25.084Z,76.88
2022-12-27T21:46:53.711Z,76.90
2022-12-27T21:49:22.533Z,76.92
2022-12-27T21:51:50.988Z,76.43
2022-12-27T21:54:19.320Z,76.50
2022-12-27T21:56:47.863Z,76.68
2022-12-27T21:59:17.751Z,76.09
2022-12-27T22:01:51.834Z,76.58
2022-12-27T22:04:22.080Z,76.36
2022-12-27T22:06:50.853Z,75.66
2022-12-27T22:09:20.001Z,75.17
2022-12-27T22:11:48.775Z,75.97
2022-12-27T22:14:23.326Z,75.80
2022-12-27T22:16:52.182Z,75.61
2022-12-27T22:19:20.650Z,74.98
2022-12-27T22:21:49.111Z,75.26
2022-12-27T22:24:19.564Z,75.18
2022-12-27T22:26:50.000Z,75.22
2022-12-27T22:29:21.807Z,74.63
2022-12-27T22:31:50.464Z,74.78
2022-12-27T22:34:18.847Z,74.43
2022-12-27T22:36:51.675Z,74.73
2022-12-27T22:39:20.501Z,74.94
2022-12-27T22:41:48.936Z,74.31
2022-12-27T22:44:17.293Z,75.06
2022-12-27T22:49:36.662Z,74.92
2022-12-27T22:52:05.980Z,74.29
2022-12-27T22:55:03.210Z,75.17
2022-12-27T22:57:24.104Z,75.24
2022-12-27T22:59:52.503Z,75.25
2022-12-27T23:02:22.645Z,74.85
2022-12-27T23:04:53.068Z,74.70
2022-12-27T23:08:05.118Z,74.76
2022-12-27T23:10:14.065Z,75.58
2022-12-27T23:12:42.969Z,75.08
2022-12-27T23:15:13.029Z,75.15
2022-12-27T23:17:42.916Z,75.21
2022-12-27T23:20:12.685Z,75.38
2022-12-27T23:22:41.481Z,75.34
2022-12-27T23:25:10.701Z,75.20
2022-12-27T23:27:39.219Z,75.08
2022-12-27T23:30:08.527Z,74.89
2022-12-27T23:32:37.055Z,74.86
2022-12-27T23:35:07.745Z,75.04
2022-12-27T23:37:36.483Z,75.06
2022-12-27T23:40:05.670Z,75.20
2022-12-27T23:42:34.020Z,74.30
2022-12-27T23:45:02.339Z,74.62
2022-12-27T23:47:30.835Z,75.00
2022-12-27T23:49:59.444Z,74.40
2022-12-27T23:52:29.164Z,74.71
2022-12-27T23:54:58.216Z,74.22
2022-12-27T23:57:26.664Z,74.33
2022-12-27T23:59:55.460Z,74.00
